createdAt,value
2019-05-20T00:02:31.079Z,3.30
2019-05-20T00:05:02.473Z,3.20
2019-05-20T00:07:33.741Z,2.67
2019-05-20T00:10:05.568Z,2.80
2019-05-20T00:12:36.919Z,2.77
2019-05-20T00:15:08.417Z,2.90
2019-05-20T00:17:39.710Z,3.07
2019-05-20T00:20:11.315Z,3.53
2019-05-20T00:22:42.349Z,3.37
2019-05-20T00:25:13.850Z,2.73
2019-05-20T00:27:45.190Z,3.00
2019-05-20T00:30:16.721Z,2.90
2019-05-20T00:32:48.078Z,2.57
2019-05-20T00:35:19.342Z,2.60
2019-05-20T00:37:50.448Z,2.63
2019-05-20T00:40:21.689Z,2.80
2019-05-20T00:42:52.928Z,3.10
2019-05-20T00:45:24.206Z,2.70
2019-05-20T00:47:55.432Z,3.73
2019-05-20T00:50:26.762Z,3.75
2019-05-20T00:52:58.217Z,4.20
2019-05-20T00:55:31.886Z,3.60
2019-05-20T00:58:03.586Z,3.90
2019-05-20T01:00:34.995Z,3.50
2019-05-20T01:03:06.236Z,3.60
2019-05-20T01:05:37.578Z,6.60
2019-05-20T01:08:09.089Z,4.20
2019-05-20T01:10:40.526Z,4.57
2019-05-20T01:13:11.699Z,4.50
2019-05-20T01:15:42.998Z,4.37
2019-05-20T01:18:13.855Z,4.60
2019-05-20T01:20:45.344Z,5.30
2019-05-20T01:23:17.656Z,5.43
2019-05-20T01:25:48.934Z,5.37
2019-05-20T01:28:19.973Z,5.80
2019-05-20T01:30:51.176Z,5.90
2019-05-20T01:33:22.369Z,6.00
2019-05-20T01:35:53.630Z,5.50
2019-05-20T01:38:25.455Z,5.40
2019-05-20T01:40:56.911Z,5.40
2019-05-20T01:43:28.188Z,4.97
2019-05-20T01:45:59.468Z,6.37
2019-05-20T01:48:30.868Z,4.40
2019-05-20T01:51:02.246Z,4.20
2019-05-20T01:53:33.654Z,4.03
2019-05-20T01:56:05.042Z,4.60
2019-05-20T01:58:39.295Z,4.40
2019-05-20T02:01:09.259Z,5.03
2019-05-20T02:03:40.577Z,4.07
2019-05-20T02:06:11.900Z,4.07
2019-05-20T02:08:43.234Z,3.60
2019-05-20T02:11:14.501Z,4.07
2019-05-20T02:13:58.600Z,3.63
2019-05-20T02:16:30.176Z,5.57
2019-05-20T02:19:01.337Z,5.80
2019-05-20T02:21:32.714Z,5.77
2019-05-20T02:24:03.881Z,6.50
2019-05-20T02:26:35.094Z,6.80
2019-05-20T02:29:06.473Z,6.80
2019-05-20T02:31:39.283Z,6.60
2019-05-20T02:34:11.557Z,6.07
2019-05-20T02:36:43.028Z,5.23
2019-05-20T02:39:13.773Z,5.73
2019-05-20T02:41:45.154Z,5.03
2019-05-20T02:44:16.379Z,5.57
2019-05-20T02:46:47.817Z,4.80
2019-05-20T02:49:19.044Z,5.40
2019-05-20T02:51:50.154Z,3.80
2019-05-20T02:54:21.011Z,3.43
2019-05-20T02:56:52.375Z,3.37
2019-05-20T02:59:24.822Z,3.25
2019-05-20T03:01:55.965Z,3.50
2019-05-20T03:04:27.373Z,3.50
2019-05-20T03:06:58.732Z,3.47
2019-05-20T03:09:29.993Z,3.10
2019-05-20T03:12:01.399Z,3.30
2019-05-20T03:14:32.687Z,3.47
2019-05-20T03:17:03.862Z,2.97
2019-05-20T03:19:35.011Z,2.80
2019-05-20T03:22:05.951Z,2.90
2019-05-20T03:24:39.286Z,2.87
2019-05-20T03:27:10.629Z,2.50
2019-05-20T03:29:41.904Z,3.03
2019-05-20T03:32:12.881Z,2.60
2019-05-20T03:34:53.718Z,3.10
2019-05-20T03:37:17.216Z,3.10
2019-05-20T03:39:48.488Z,2.90
2019-05-20T03:42:19.479Z,3.13
2019-05-20T03:44:50.669Z,3.10
2019-05-20T03:47:21.547Z,4.10
2019-05-20T03:49:53.038Z,3.13
2019-05-20T03:52:24.219Z,3.10
2019-05-20T03:54:55.607Z,2.70
2019-05-20T03:57:26.921Z,2.70
2019-05-20T03:59:58.978Z,2.60
2019-05-20T04:02:30.232Z,2.13
2019-05-20T04:05:03.224Z,3.07
2019-05-20T04:07:34.504Z,2.60
2019-05-20T04:10:06.334Z,2.40
2019-05-20T04:12:37.902Z,3.27
2019-05-20T04:15:09.053Z,2.90
2019-05-20T04:17:40.438Z,2.60
2019-05-20T04:20:11.934Z,2.60
2019-05-20T04:22:43.398Z,2.50
2019-05-20T04:25:14.346Z,2.67
2019-05-20T04:27:46.118Z,3.00
2019-05-20T04:30:19.019Z,2.60
2019-05-20T04:32:50.448Z,2.70
2019-05-20T04:35:23.490Z,2.40
2019-05-20T04:37:54.978Z,2.60
2019-05-20T04:40:26.029Z,2.70
2019-05-20T04:42:57.500Z,3.80
2019-05-20T04:45:29.379Z,2.30
2019-05-20T04:48:00.570Z,4.37
2019-05-20T04:50:31.736Z,2.80
2019-05-20T04:53:02.884Z,2.17
2019-05-20T04:55:34.276Z,2.20
2019-05-20T04:58:05.617Z,2.30
2019-05-20T05:00:56.227Z,2.33
2019-05-20T05:03:27.437Z,2.63
2019-05-20T05:05:58.690Z,2.30
2019-05-20T05:08:30.310Z,2.93
2019-05-20T05:11:01.848Z,3.10
2019-05-20T05:13:36.800Z,2.47
2019-05-20T05:16:08.458Z,5.27
2019-05-20T05:18:40.007Z,3.53
2019-05-20T05:21:12.219Z,4.10
2019-05-20T05:23:56.951Z,3.80
2019-05-20T05:26:16.411Z,3.50
2019-05-20T05:28:47.687Z,3.80
2019-05-20T05:31:18.578Z,4.37
2019-05-20T05:33:49.965Z,4.20
2019-05-20T05:36:21.345Z,3.40
2019-05-20T05:38:52.603Z,2.90
2019-05-20T05:41:24.117Z,2.70
2019-05-20T05:43:55.543Z,3.17
2019-05-20T05:46:26.769Z,3.40
2019-05-20T05:48:58.339Z,3.27
2019-05-20T05:51:30.116Z,3.73
2019-05-20T05:54:01.337Z,3.50
2019-05-20T05:56:33.229Z,3.00
2019-05-20T05:59:05.466Z,2.90
2019-05-20T06:01:36.861Z,3.30
2019-05-20T06:04:08.105Z,2.80
2019-05-20T06:06:39.311Z,3.50
2019-05-20T06:09:10.550Z,2.93
2019-05-20T06:11:41.874Z,3.40
2019-05-20T06:14:13.193Z,3.00
2019-05-20T06:16:44.446Z,2.57
2019-05-20T06:19:15.587Z,4.10
2019-05-20T06:21:46.816Z,2.80
2019-05-20T06:24:18.205Z,3.10
2019-05-20T06:26:49.488Z,2.97
2019-05-20T06:29:20.886Z,3.13
2019-05-20T06:31:52.408Z,3.40
2019-05-20T06:34:23.854Z,3.07
2019-05-20T06:36:56.660Z,3.27
2019-05-20T06:39:28.486Z,3.00
2019-05-20T06:41:59.653Z,3.87
2019-05-20T06:44:31.263Z,3.50
2019-05-20T06:47:02.479Z,4.13
2019-05-20T06:49:34.455Z,4.33
2019-05-20T06:52:06.003Z,4.00
2019-05-20T06:54:37.406Z,3.67
2019-05-20T06:57:08.497Z,3.57
2019-05-20T06:59:41.909Z,4.40
2019-05-20T07:02:13.156Z,3.77
2019-05-20T07:04:44.578Z,3.80
2019-05-20T07:07:20.908Z,3.80
2019-05-20T07:09:48.482Z,3.17
2019-05-20T07:12:41.076Z,3.80
2019-05-20T07:15:06.310Z,5.70
2019-05-20T07:17:38.458Z,4.40
2019-05-20T07:20:09.801Z,3.70
2019-05-20T07:22:55.258Z,3.33
2019-05-20T07:25:14.498Z,4.30
2019-05-20T07:27:45.651Z,3.27
2019-05-20T07:30:17.152Z,3.47
2019-05-20T07:32:48.465Z,3.50
2019-05-20T07:35:29.757Z,3.40
2019-05-20T07:37:52.724Z,3.30
2019-05-20T07:40:34.199Z,4.20
2019-05-20T07:43:06.177Z,3.23
2019-05-20T07:45:38.848Z,4.20
2019-05-20T07:48:10.647Z,3.10
2019-05-20T07:50:42.326Z,3.20
2019-05-20T07:53:13.860Z,3.20
2019-05-20T07:55:55.012Z,3.60
2019-05-20T07:58:29.038Z,3.10
2019-05-20T08:01:00.620Z,3.13
2019-05-20T08:03:31.809Z,3.80
2019-05-20T08:06:03.149Z,3.40
2019-05-20T08:08:34.717Z,3.30
2019-05-20T08:11:06.805Z,3.20
2019-05-20T08:13:38.524Z,3.30
2019-05-20T08:16:10.023Z,3.20
2019-05-20T08:18:41.107Z,3.30
2019-05-20T08:21:12.773Z,3.27
2019-05-20T08:23:44.045Z,3.23
2019-05-20T08:26:15.225Z,2.90
2019-05-20T08:28:46.506Z,4.00
2019-05-20T08:31:17.679Z,3.70
2019-05-20T08:33:49.012Z,3.73
2019-05-20T08:36:20.018Z,4.00
2019-05-20T08:38:51.276Z,3.63
2019-05-20T08:41:23.838Z,3.40
2019-05-20T08:43:55.516Z,3.73
2019-05-20T08:46:26.741Z,3.53
2019-05-20T08:48:57.964Z,4.70
2019-05-20T08:51:29.182Z,3.73
2019-05-20T08:54:00.432Z,3.80
2019-05-20T08:56:31.796Z,3.73
2019-05-20T08:59:03.375Z,4.57
2019-05-20T09:01:34.606Z,3.07
2019-05-20T09:04:05.893Z,3.70
2019-05-20T09:06:37.415Z,4.03
2019-05-20T09:09:12.475Z,4.07
2019-05-20T09:11:47.298Z,3.33
2019-05-20T09:14:16.518Z,5.30
2019-05-20T09:16:48.913Z,3.07
2019-05-20T09:19:19.917Z,3.50
2019-05-20T09:21:52.481Z,2.93
2019-05-20T09:24:23.912Z,3.57
2019-05-20T09:26:55.304Z,3.80
2019-05-20T09:29:26.526Z,4.63
2019-05-20T09:31:58.348Z,3.03
2019-05-20T09:34:29.725Z,4.20
2019-05-20T09:37:01.248Z,2.80
2019-05-20T09:39:32.681Z,3.13
2019-05-20T09:42:03.999Z,6.37
2019-05-20T09:44:35.448Z,3.67
2019-05-20T09:47:07.797Z,4.20
2019-05-20T09:49:39.040Z,3.30
2019-05-20T09:52:10.520Z,4.30
2019-05-20T09:54:45.453Z,3.20
2019-05-20T09:57:14.840Z,4.10
2019-05-20T09:59:45.876Z,4.80
2019-05-20T10:02:17.037Z,3.90
2019-05-20T10:04:48.271Z,3.47
2019-05-20T10:07:19.852Z,3.40
2019-05-20T10:09:51.038Z,5.00
2019-05-20T10:12:22.547Z,3.80
2019-05-20T10:14:53.843Z,4.10
2019-05-20T10:17:25.709Z,3.57
2019-05-20T10:19:57.224Z,3.93
2019-05-20T10:22:28.754Z,4.50
2019-05-20T10:25:00.201Z,3.70
2019-05-20T10:27:31.761Z,4.93
2019-05-20T10:30:02.972Z,5.30
2019-05-20T10:32:34.523Z,5.10
2019-05-20T10:35:06.701Z,5.17
2019-05-20T10:37:37.889Z,5.80
2019-05-20T10:40:09.810Z,5.93
2019-05-20T10:42:41.532Z,5.13
2019-05-20T10:45:13.301Z,6.23
2019-05-20T10:47:44.719Z,6.23
2019-05-20T10:50:16.082Z,5.53
2019-05-20T10:52:47.871Z,5.80
2019-05-20T10:55:18.969Z,6.30
2019-05-20T10:57:50.556Z,6.17
2019-05-20T11:00:21.997Z,6.03
2019-05-20T11:02:53.448Z,5.57
2019-05-20T11:05:24.866Z,6.40
2019-05-20T11:07:56.067Z,7.43
2019-05-20T11:10:27.631Z,6.63
2019-05-20T11:12:59.200Z,7.10
2019-05-20T11:15:30.377Z,7.40
2019-05-20T11:18:05.092Z,6.47
2019-05-20T11:20:37.018Z,6.83
2019-05-20T11:23:08.286Z,7.30
2019-05-20T11:25:39.505Z,7.77
2019-05-20T11:28:11.922Z,7.80
2019-05-20T11:30:43.428Z,9.77
2019-05-20T11:33:14.801Z,8.80
2019-05-20T11:35:46.251Z,9.17
2019-05-20T11:38:17.478Z,10.80
2019-05-20T11:40:48.821Z,10.17
2019-05-20T11:43:20.441Z,10.20
2019-05-20T11:45:53.401Z,9.33
2019-05-20T11:48:24.733Z,8.50
2019-05-20T11:50:56.001Z,9.50
2019-05-20T11:53:27.581Z,8.20
2019-05-20T11:55:58.718Z,11.43
2019-05-20T11:58:29.936Z,11.20
2019-05-20T12:01:01.157Z,8.33
2019-05-20T12:03:32.888Z,8.30
2019-05-20T12:06:04.664Z,9.90
2019-05-20T12:08:36.363Z,9.00
2019-05-20T12:11:07.660Z,9.30
2019-05-20T12:13:39.269Z,9.00
2019-05-20T12:16:10.505Z,8.63
2019-05-20T12:18:45.104Z,9.30
2019-05-20T12:21:15.577Z,8.53
2019-05-20T12:23:46.891Z,9.87
2019-05-20T12:26:17.932Z,7.93
2019-05-20T12:28:50.405Z,8.47
2019-05-20T12:31:21.883Z,9.13
2019-05-20T12:34:03.621Z,10.80
2019-05-20T12:36:34.207Z,7.63
2019-05-20T12:39:06.730Z,8.27
2019-05-20T12:41:38.260Z,11.63
2019-05-20T12:44:12.895Z,8.00
2019-05-20T12:46:42.975Z,7.37
2019-05-20T12:49:14.145Z,7.73
2019-05-20T12:51:46.228Z,7.97
2019-05-20T12:54:17.465Z,8.50
2019-05-20T12:56:48.966Z,8.47
2019-05-20T12:59:20.012Z,7.70
2019-05-20T13:01:51.163Z,8.10
2019-05-20T13:04:22.275Z,7.53
2019-05-20T13:06:53.536Z,7.47
2019-05-20T13:09:25.155Z,7.12
2019-05-20T13:11:56.313Z,6.73
2019-05-20T13:14:27.792Z,6.47
2019-05-20T13:16:59.078Z,7.70
2019-05-20T13:19:30.844Z,6.67
2019-05-20T13:22:02.867Z,8.00
2019-05-20T13:24:34.112Z,6.40
2019-05-20T13:27:05.208Z,6.93
2019-05-20T13:29:36.675Z,7.70
2019-05-20T13:32:07.865Z,7.13
2019-05-20T13:34:39.172Z,7.90
2019-05-20T13:37:10.476Z,8.20
2019-05-20T13:39:41.764Z,8.00
2019-05-20T13:42:13.356Z,7.57
2019-05-20T13:44:44.619Z,6.90
2019-05-20T13:47:15.496Z,7.10
2019-05-20T13:49:46.898Z,7.53
2019-05-20T13:52:17.801Z,6.80
2019-05-20T13:54:49.184Z,7.13
2019-05-20T13:57:20.089Z,7.20
2019-05-20T13:59:51.300Z,6.80
2019-05-20T14:02:22.238Z,6.70
2019-05-20T14:04:53.382Z,6.77
2019-05-20T14:07:25.110Z,7.30
2019-05-20T14:09:56.500Z,6.00
2019-05-20T14:12:27.780Z,7.40
2019-05-20T14:14:59.530Z,6.50
2019-05-20T14:17:30.768Z,6.23
2019-05-20T14:20:02.305Z,6.60
2019-05-20T14:22:33.840Z,6.40
2019-05-20T14:25:05.919Z,6.57
2019-05-20T14:27:37.295Z,6.17
2019-05-20T14:30:09.796Z,5.40
2019-05-20T14:32:41.458Z,6.23
2019-05-20T14:35:14.221Z,7.10
2019-05-20T14:37:45.540Z,5.80
2019-05-20T14:40:17.639Z,5.47
2019-05-20T14:42:49.051Z,5.80
2019-05-20T14:45:20.242Z,6.70
2019-05-20T14:47:51.488Z,4.77
2019-05-20T14:50:22.794Z,5.07
2019-05-20T14:52:54.041Z,4.47
2019-05-20T14:55:25.426Z,4.83
2019-05-20T14:57:57.152Z,4.50
2019-05-20T15:00:28.576Z,6.83
2019-05-20T15:02:59.622Z,6.60
2019-05-20T15:05:31.469Z,5.97
2019-05-20T15:08:02.639Z,4.73
2019-05-20T15:10:35.736Z,5.10
2019-05-20T15:13:07.088Z,4.60
2019-05-20T15:15:38.519Z,6.60
2019-05-20T15:18:10.833Z,6.30
2019-05-20T15:20:42.491Z,8.23
2019-05-20T15:23:14.290Z,6.73
2019-05-20T15:25:45.656Z,4.77
2019-05-20T15:28:16.475Z,5.40
2019-05-20T15:30:48.043Z,5.50
2019-05-20T15:33:19.324Z,5.30
2019-05-20T15:35:50.905Z,9.17
2019-05-20T15:38:22.155Z,5.50
2019-05-20T15:40:53.582Z,3.20
2019-05-20T15:43:25.013Z,4.40
2019-05-20T15:45:56.446Z,3.80
2019-05-20T15:48:27.773Z,3.73
2019-05-20T15:50:59.059Z,4.50
2019-05-20T15:53:30.400Z,5.57
2019-05-20T15:56:02.129Z,4.10
2019-05-20T15:58:33.531Z,3.83
2019-05-20T16:01:04.978Z,3.93
2019-05-20T16:03:36.162Z,3.77
2019-05-20T16:06:07.946Z,3.60
2019-05-20T16:08:39.337Z,3.40
2019-05-20T16:11:10.257Z,3.53
2019-05-20T16:13:41.797Z,3.27
2019-05-20T16:16:14.181Z,3.37
2019-05-20T16:18:45.836Z,4.00
2019-05-20T16:21:16.993Z,4.03
2019-05-20T16:23:48.396Z,3.47
2019-05-20T16:26:19.716Z,3.42
2019-05-20T16:28:51.060Z,3.47
2019-05-20T16:31:22.510Z,3.63
2019-05-20T16:33:53.902Z,3.10
2019-05-20T16:36:25.331Z,3.93
2019-05-20T16:38:56.889Z,4.07
2019-05-20T16:41:28.143Z,3.20
2019-05-20T16:43:59.805Z,4.67
2019-05-20T16:46:31.431Z,5.70
2019-05-20T16:49:02.736Z,4.70
2019-05-20T16:51:34.078Z,4.57
2019-05-20T16:54:06.158Z,5.17
2019-05-20T16:56:37.535Z,4.60
2019-05-20T16:59:08.933Z,5.13
2019-05-20T17:01:46.199Z,4.30
2019-05-20T17:04:14.064Z,4.97
2019-05-20T17:06:45.501Z,5.33
2019-05-20T17:09:16.528Z,5.80
2019-05-20T17:11:48.146Z,5.23
2019-05-20T17:14:19.000Z,4.70
2019-05-20T17:16:50.670Z,5.13
2019-05-20T17:19:21.569Z,4.67
2019-05-20T17:21:56.433Z,4.67
2019-05-20T17:24:27.991Z,4.87
2019-05-20T17:26:59.524Z,5.00
2019-05-20T17:29:31.035Z,5.10
2019-05-20T17:32:03.488Z,4.60
2019-05-20T17:34:34.818Z,6.00
2019-05-20T17:37:06.243Z,4.50
2019-05-20T17:39:37.728Z,7.83
2019-05-20T17:42:09.032Z,5.07
2019-05-20T17:44:40.215Z,4.53
2019-05-20T17:47:12.807Z,5.07
2019-05-20T17:49:44.381Z,6.00
2019-05-20T17:52:15.818Z,4.47
2019-05-20T17:54:47.121Z,5.70
2019-05-20T17:57:18.459Z,5.33
2019-05-20T17:59:49.731Z,5.83
2019-05-20T18:02:21.401Z,19.10
2019-05-20T18:04:52.764Z,7.63
2019-05-20T18:07:23.697Z,5.40
2019-05-20T18:09:55.790Z,4.60
2019-05-20T18:12:27.214Z,5.30
2019-05-20T18:15:00.491Z,5.23
2019-05-20T18:17:32.791Z,6.30
2019-05-20T18:20:05.024Z,5.70
2019-05-20T18:22:36.681Z,7.77
2019-05-20T18:25:09.021Z,7.10
2019-05-20T18:27:40.499Z,7.50
2019-05-20T18:30:13.853Z,6.10
2019-05-20T18:32:45.261Z,10.33
2019-05-20T18:35:16.428Z,6.90
2019-05-20T18:37:48.058Z,5.57
2019-05-20T18:40:19.497Z,6.30
2019-05-20T18:42:51.073Z,5.00
2019-05-20T18:45:22.432Z,5.10
2019-05-20T18:47:54.124Z,5.50
2019-05-20T18:50:25.463Z,6.10
2019-05-20T18:52:56.817Z,7.60
2019-05-20T18:55:27.774Z,6.40
2019-05-20T18:57:59.162Z,5.97
2019-05-20T19:00:31.124Z,7.67
2019-05-20T19:03:02.458Z,6.23
2019-05-20T19:05:33.881Z,5.10
2019-05-20T19:08:05.436Z,4.70
2019-05-20T19:10:37.735Z,6.27
2019-05-20T19:13:10.042Z,6.23
2019-05-20T19:15:41.342Z,6.80
2019-05-20T19:18:12.821Z,6.00
2019-05-20T19:20:44.081Z,7.70
2019-05-20T19:23:17.881Z,7.13
2019-05-20T19:25:50.946Z,6.80
2019-05-20T19:28:22.349Z,7.10
2019-05-20T19:30:53.796Z,7.90
2019-05-20T19:33:25.069Z,6.50
2019-05-20T19:35:56.394Z,6.33
2019-05-20T19:38:31.736Z,7.20
2019-05-20T19:41:00.777Z,6.20
2019-05-20T19:43:32.377Z,6.63
2019-05-20T19:46:03.939Z,6.87
2019-05-20T19:48:35.565Z,9.10
2019-05-20T19:51:06.902Z,7.37
2019-05-20T19:53:38.141Z,8.30
2019-05-20T19:56:09.053Z,10.23
2019-05-20T19:58:40.305Z,6.40
2019-05-20T20:01:11.773Z,8.73
2019-05-20T20:03:43.033Z,8.50
2019-05-20T20:06:14.918Z,7.17
2019-05-20T20:08:46.207Z,6.80
2019-05-20T20:11:17.454Z,6.07
2019-05-20T20:13:48.949Z,6.43
2019-05-20T20:16:20.565Z,6.90
2019-05-20T20:18:52.131Z,7.70
2019-05-20T20:21:23.069Z,7.53
2019-05-20T20:23:58.529Z,7.83
2019-05-20T20:26:29.926Z,8.50
2019-05-20T20:29:01.297Z,6.60
2019-05-20T20:31:32.680Z,8.20
2019-05-20T20:34:04.488Z,9.17
2019-05-20T20:36:35.662Z,8.50
2019-05-20T20:39:07.472Z,10.50
2019-05-20T20:41:38.860Z,10.00
2019-05-20T20:44:10.191Z,8.30
2019-05-20T20:46:41.487Z,10.03
2019-05-20T20:49:14.777Z,14.97
2019-05-20T20:51:45.790Z,10.80
2019-05-20T20:54:16.691Z,12.77
2019-05-20T20:56:48.239Z,11.00
2019-05-20T20:59:19.045Z,10.27
2019-05-20T21:01:54.097Z,9.83
2019-05-20T21:04:23.022Z,10.20
2019-05-20T21:06:54.419Z,10.50
2019-05-20T21:09:26.790Z,10.13
2019-05-20T21:11:58.436Z,12.33
2019-05-20T21:14:29.720Z,12.93
2019-05-20T21:17:00.898Z,10.57
2019-05-20T21:19:33.353Z,11.63
2019-05-20T21:22:04.818Z,11.70
2019-05-20T21:24:36.228Z,11.13
2019-05-20T21:27:08.607Z,10.20
2019-05-20T21:29:40.356Z,10.87
2019-05-20T21:32:12.056Z,13.03
2019-05-20T21:34:54.107Z,11.60
2019-05-20T21:37:25.503Z,12.07
2019-05-20T21:39:56.955Z,9.90
2019-05-20T21:42:28.342Z,13.20
2019-05-20T21:44:59.784Z,10.97
2019-05-20T21:47:31.058Z,10.90
2019-05-20T21:50:02.771Z,10.30
2019-05-20T21:52:34.152Z,10.03
2019-05-20T21:55:05.161Z,8.87
2019-05-20T21:57:36.511Z,10.03
2019-05-20T22:00:10.689Z,8.80
2019-05-20T22:02:43.441Z,8.90
2019-05-20T22:05:15.024Z,7.70
2019-05-20T22:07:46.322Z,8.13
2019-05-20T22:10:17.623Z,8.70
2019-05-20T22:12:49.091Z,8.77
2019-05-20T22:15:20.455Z,8.20
2019-05-20T22:17:51.915Z,9.27
2019-05-20T22:20:22.818Z,8.87
2019-05-20T22:23:11.722Z,8.20
2019-05-20T22:25:42.993Z,7.63
2019-05-20T22:28:15.023Z,7.42
2019-05-20T22:30:46.260Z,6.97
2019-05-20T22:33:17.560Z,6.90
2019-05-20T22:35:48.705Z,6.50
2019-05-20T22:38:20.174Z,5.70
2019-05-20T22:40:51.706Z,6.03
2019-05-20T22:43:22.699Z,5.70
2019-05-20T22:45:53.980Z,5.50
2019-05-20T22:48:24.918Z,5.43
2019-05-20T22:50:56.076Z,5.30
2019-05-20T22:53:27.209Z,5.80
2019-05-20T22:55:59.020Z,4.60
2019-05-20T22:58:30.136Z,5.43
2019-05-20T23:01:02.355Z,5.23
2019-05-20T23:03:33.720Z,6.03
2019-05-20T23:06:05.208Z,6.10
2019-05-20T23:08:36.414Z,5.00
2019-05-20T23:11:07.229Z,5.97
2019-05-20T23:13:38.572Z,5.13
2019-05-20T23:16:09.476Z,5.30
2019-05-20T23:18:40.852Z,4.57
2019-05-20T23:21:12.691Z,4.70
2019-05-20T23:23:43.777Z,5.47
2019-05-20T23:26:18.943Z,5.17
2019-05-20T23:28:50.268Z,6.03
2019-05-20T23:31:21.605Z,5.70
2019-05-20T23:33:52.826Z,5.60
2019-05-20T23:36:24.167Z,5.90
2019-05-20T23:38:55.360Z,5.73
2019-05-20T23:41:26.493Z,6.00
2019-05-20T23:43:57.695Z,4.70
2019-05-20T23:46:29.112Z,5.10
2019-05-20T23:49:00.104Z,4.43
2019-05-20T23:51:31.501Z,5.20
2019-05-20T23:54:02.723Z,5.00
2019-05-20T23:56:34.015Z,4.73
2019-05-20T23:59:05.308Z,5.47
